Time,TemperatureF,DewpointF,PressureIn,WindDirection,WindDirectionDegrees,WindSpeedMPH,WindSpeedGustMPH,Humidity,HourlyPrecipIn,Conditions,Clouds,dailyrainin,SolarRadiationWatts/m^2,SoftwareType,DateUTC
2013-03-05 06:46:00,27.1,1.2,29.97,WNW,292,10.3,10.3,32,-99.99,,---,-99.99,0.00,VWS V14.01,2013-03-05 12:46:00,
2013-03-05 06:48:00,27.0,1.0,29.97,WNW,292,10.3,10.3,32,-99.99,,---,-99.99,0.00,VWS V14.01,2013-03-05 12:48:00,
2013-03-05 06:52:00,27.0,1.0,29.97,NW,315,10.5,10.5,32,-99.99,,---,-99.99,0.00,VWS V14.01,2013-03-05 12:52:00,
2013-03-05 06:54:00,27.0,1.0,29.97,NW,315,10.5,10.5,32,-99.99,,---,-99.99,0.00,VWS V14.01,2013-03-05 12:54:00,
2013-03-05 07:00:00,27.0,0.4,29.97,NNW,338,17.7,17.7,31,-99.99,,---,-99.99,0.00,VWS V14.01,2013-03-05 13:00:00,
2013-03-05 07:05:00,26.8,0.9,29.97,NW,315,9.0,9.0,32,-99.99,,---,-99.99,0.00,VWS V14.01,2013-03-05 13:05:00,
2013-03-05 07:10:00,26.6,0.7,29.97,NNW,338,13.6,13.6,32,-99.99,,---,-99.99,0.00,VWS V14.01,2013-03-05 13:10:00,
2013-03-05 07:16:00,26.6,0.7,29.97,NW,315,13.2,14.8,32,-99.99,,---,-99.99,0.00,VWS V14.01,2013-03-05 13:16:00,
2013-03-05 07:22:00,26.6,0.7,29.97,NW,315,17.7,19.9,32,-99.99,,---,-99.99,0.00,VWS V14.01,2013-03-05 13:22:00,
2013-03-05 07:28:00,26.6,0.1,29.97,NNW,338,10.1,13.9,31,-99.99,,---,-99.99,0.00,VWS V14.01,2013-03-05 13:28:00,
2013-03-05 07:33:00,26.6,0.1,29.97,NW,315,11.9,12.5,31,-99.99,,---,-99.99,0.00,VWS V14.01,2013-03-05 13:33:00,
2013-03-05 07:39:00,26.8,0.2,29.97,NW,315,13.2,13.2,31,-99.99,,---,-99.99,0.00,VWS V14.01,2013-03-05 13:39:00,
2013-03-05 07:45:00,26.8,0.2,29.97,NNW,338,10.7,10.7,31,-99.99,,---,-99.99,0.00,VWS V14.01,2013-03-05 13:45:00,
2013-03-05 07:51:00,26.8,0.2,29.97,NW,315,12.5,13.4,31,-99.99,,---,-99.99,0.00,VWS V14.01,2013-03-05 13:51:00,
2013-03-05 07:56:00,27.0,-1.8,30.00,WNW,292,10.3,12.5,28,-99.99,,---,-99.99,0.00,VWS V14.01,2013-03-05 13:56:00,
2013-03-05 08:01:00,27.1,0.5,30.00,NNW,338,12.3,12.8,31,-99.99,,---,-99.99,0.00,VWS V14.01,2013-03-05 14:01:00,
2013-03-05 08:07:00,27.0,-1.8,30.00,NNW,338,13.0,13.0,28,-99.99,,---,-99.99,0.00,VWS V14.01,2013-03-05 14:07:00,
2013-03-05 08:13:00,27.1,-1.6,30.00,WNW,292,15.4,15.4,28,-99.99,,---,-99.99,0.00,VWS V14.01,2013-03-05 14:13:00,
2013-03-05 08:18:00,27.1,-1.6,30.00,NNW,338,12.5,13.2,28,-99.99,,---,-99.99,0.00,VWS V14.01,2013-03-05 14:18:00,
2013-03-05 08:24:00,27.1,-1.6,30.00,NNW,338,11.2,12.5,28,-99.99,,---,-99.99,0.00,VWS V14.01,2013-03-05 14:24:00,
2013-03-05 08:30:00,27.3,-3.0,30.00,NW,315,17.2,17.2,26,-99.99,,---,-99.99,0.00,VWS V14.01,2013-03-05 14:30:00,
2013-03-05 08:36:00,27.1,-3.2,0.00,WNW,292,22.6,22.6,26,-99.99,,---,-99.99,0.00,VWS V14.01,2013-03-05 14:36:00,
2013-03-05 08:42:00,27.7,-1.2,0.00,NW,315,10.3,12.3,28,-99.99,,---,-99.99,0.00,VWS V14.01,2013-03-05 14:42:00,
2013-03-05 08:48:00,27.9,-2.6,30.03,NW,315,17.2,17.2,26,-99.99,,---,-99.99,0.00,VWS V14.01,2013-03-05 14:48:00,
2013-03-05 08:54:00,27.9,-2.6,30.03,NNW,338,15.4,20.1,26,-99.99,,---,-99.99,0.00,VWS V14.01,2013-03-05 14:54:00,
2013-03-05 08:59:00,27.9,-2.6,30.03,NNW,338,18.8,18.8,26,-99.99,,---,-99.99,0.00,VWS V14.01,2013-03-05 14:59:00,
2013-03-05 09:04:00,28.0,-2.4,30.03,WNW,292,12.8,15.4,26,-99.99,,---,-99.99,0.00,VWS V14.01,2013-03-05 15:04:00,
2013-03-05 09:09:00,28.2,-2.2,30.03,NNW,338,15.4,18.6,26,-99.99,,---,-99.99,0.00,VWS V14.01,2013-03-05 15:09:00,
2013-03-05 09:15:00,27.9,-1.0,30.03,NNW,338,12.8,15.9,28,-99.99,,---,-99.99,0.00,VWS V14.01,2013-03-05 15:15:00,
2013-03-05 09:21:00,27.7,-1.2,30.03,NW,315,17.0,17.0,28,-99.99,,---,-99.99,0.00,VWS V14.01,2013-03-05 15:21:00,
2013-03-05 09:26:00,27.9,-1.0,30.03,WNW,292,15.2,15.2,28,-99.99,,---,-99.99,0.00,VWS V14.01,2013-03-05 15:26:00,
2013-03-05 09:31:00,27.9,-1.0,30.03,NW,315,12.5,13.0,28,-99.99,,---,-99.99,0.00,VWS V14.01,2013-03-05 15:31:00,
2013-03-05 09:37:00,27.9,-1.0,30.03,WNW,292,15.4,15.4,28,-99.99,,---,-99.99,0.00,VWS V14.01,2013-03-05 15:37:00,
2013-03-05 09:43:00,28.0,1.3,30.03,WNW,292,14.8,15.4,31,-99.99,,---,-99.99,0.00,VWS V14.01,2013-03-05 15:43:00,
2013-03-05 09:48:00,28.2,1.5,30.03,NNW,338,10.7,12.1,31,-99.99,,---,-99.99,0.00,VWS V14.01,2013-03-05 15:48:00,
2013-03-05 09:54:00,28.4,1.6,30.03,NNW,338,10.7,10.7,31,-99.99,,---,-99.99,0.00,VWS V14.01,2013-03-05 15:54:00,
2013-03-05 10:01:00,28.4,1.6,30.03,NW,315,17.9,19.9,31,-99.99,,---,-99.99,0.00,VWS V14.01,2013-03-05 16:01:00,
2013-03-05 10:06:00,28.6,1.1,30.03,NNW,338,13.6,19.7,30,-99.99,,---,-99.99,0.00,VWS V14.01,2013-03-05 16:06:00,
2013-03-05 10:11:00,28.4,1.6,30.03,NNW,338,23.7,23.7,31,-99.99,,---,-99.99,0.00,VWS V14.01,2013-03-05 16:11:00,
2013-03-05 10:16:00,28.4,1.6,30.03,WNW,292,21.0,23.7,31,-99.99,,---,-99.99,0.00,VWS V14.01,2013-03-05 16:16:00,
2013-03-05 10:22:00,28.6,1.8,30.03,WNW,292,14.8,14.8,31,-99.99,,---,-99.99,0.00,VWS V14.01,2013-03-05 16:22:00,
2013-03-05 10:27:00,28.9,2.1,30.03,WNW,292,17.5,17.5,31,-99.99,,---,-99.99,0.00,VWS V14.01,2013-03-05 16:27:00,
2013-03-05 10:34:00,28.9,2.1,30.03,NNW,338,15.2,17.7,31,-99.99,,---,-99.99,0.00,VWS V14.01,2013-03-05 16:34:00,
2013-03-05 10:39:00,29.3,2.4,30.03,NNW,338,24.2,24.2,31,-99.99,,---,-99.99,0.00,VWS V14.01,2013-03-05 16:39:00,
2013-03-05 10:44:00,29.5,2.6,30.03,NW,315,14.8,17.5,31,-99.99,,---,-99.99,0.00,VWS V14.01,2013-03-05 16:44:00,
2013-03-05 10:50:00,29.5,2.6,30.03,WNW,292,13.9,16.1,31,-99.99,,---,-99.99,0.00,VWS V14.01,2013-03-05 16:50:00,
2013-03-05 10:56:00,30.0,3.1,30.03,WNW,292,17.5,24.4,31,-99.99,,---,-99.99,0.00,VWS V14.01,2013-03-05 16:56:00,
2013-03-05 11:02:00,30.4,2.7,30.03,WNW,292,23.9,26.2,30,-99.99,,---,-99.99,0.00,VWS V14.01,2013-03-05 17:02:00,
2013-03-05 11:07:00,30.6,2.8,30.03,NW,315,17.7,17.7,30,-99.99,,---,-99.99,0.00,VWS V14.01,2013-03-05 17:07:00,
2013-03-05 11:12:00,30.7,3.0,30.03,WNW,292,19.5,19.5,30,-99.99,,---,-99.99,0.00,VWS V14.01,2013-03-05 17:12:00,
2013-03-05 11:17:00,31.5,3.6,30.03,WNW,292,15.4,15.9,30,-99.99,,---,-99.99,0.00,VWS V14.01,2013-03-05 17:17:00,
2013-03-05 11:24:00,31.5,3.6,30.03,WNW,292,25.1,25.1,30,-99.99,,---,-99.99,0.00,VWS V14.01,2013-03-05 17:24:00,
2013-03-05 11:29:00,31.5,2.1,30.03,WNW,292,18.1,18.1,28,-99.99,,---,-99.99,0.00,VWS V14.01,2013-03-05 17:29:00,
2013-03-05 11:34:00,31.6,3.8,30.03,NW,315,16.1,16.1,30,-99.99,,---,-99.99,0.00,VWS V14.01,2013-03-05 17:34:00,
2013-03-05 11:40:00,31.5,3.6,30.03,NW,315,18.6,18.6,30,-99.99,,---,-99.99,0.00,VWS V14.01,2013-03-05 17:40:00,
2013-03-05 11:45:00,31.5,3.6,30.03,WNW,292,18.8,18.8,30,-99.99,,---,-99.99,0.00,VWS V14.01,2013-03-05 17:45:00,
2013-03-05 11:51:00,31.5,3.6,30.03,NNW,338,17.5,17.5,30,-99.99,,---,-99.99,0.00,VWS V14.01,2013-03-05 17:51:00,
2013-03-05 11:57:00,31.3,3.5,30.03,NNW,338,17.9,17.9,30,-99.99,,---,-99.99,0.00,VWS V14.01,2013-03-05 17:57:00,
2013-03-05 12:03:00,31.3,3.5,30.03,NW,315,13.2,22.2,30,-99.99,,---,-99.99,0.00,VWS V14.01,2013-03-05 18:03:00,
2013-03-05 12:09:00,31.5,2.1,30.03,NNW,338,22.2,22.2,28,-99.99,,---,-99.99,0.00,VWS V14.01,2013-03-05 18:09:00,
2013-03-05 12:15:00,31.5,2.1,30.03,NNW,338,18.8,22.6,28,-99.99,,---,-99.99,0.00,VWS V14.01,2013-03-05 18:15:00,
2013-03-05 12:20:00,31.6,2.3,30.03,WNW,292,17.7,17.7,28,-99.99,,---,-99.99,0.00,VWS V14.01,2013-03-05 18:20:00,
2013-03-05 12:25:00,31.6,3.8,30.03,NW,315,17.2,18.6,30,-99.99,,---,-99.99,0.00,VWS V14.01,2013-03-05 18:25:00,
2013-03-05 12:30:00,31.5,2.1,30.03,NW,315,26.0,26.0,28,-99.99,,---,-99.99,0.00,VWS V14.01,2013-03-05 18:30:00,
2013-03-05 12:36:00,31.5,2.1,30.03,WNW,292,22.2,25.7,28,-99.99,,---,-99.99,0.00,VWS V14.01,2013-03-05 18:36:00,
2013-03-05 12:42:00,31.5,2.1,30.03,NW,315,27.1,27.1,28,-99.99,,---,-99.99,0.00,VWS V14.01,2013-03-05 18:42:00,
2013-03-05 12:48:00,31.6,2.3,30.03,NNW,338,15.4,26.9,28,-99.99,,---,-99.99,0.00,VWS V14.01,2013-03-05 18:48:00,
2013-03-05 12:54:00,31.6,2.3,30.03,NNW,338,15.4,15.4,28,-99.99,,---,-99.99,0.00,VWS V14.01,2013-03-05 18:54:00,
2013-03-05 12:59:00,32.0,4.1,30.03,NW,315,12.8,19.5,30,-99.99,,---,-99.99,0.00,VWS V14.01,2013-03-05 18:59:00,
2013-03-05 13:05:00,31.8,2.4,30.03,NNW,338,15.4,15.4,28,-99.99,,---,-99.99,0.00,VWS V14.01,2013-03-05 19:05:00,
2013-03-05 13:11:00,31.8,3.9,30.03,WNW,292,22.6,22.6,30,-99.99,,---,-99.99,0.00,VWS V14.01,2013-03-05 19:11:00,
2013-03-05 13:17:00,31.8,3.9,30.03,NW,315,25.7,25.7,30,-99.99,,---,-99.99,0.00,VWS V14.01,2013-03-05 19:17:00,
2013-03-05 13:23:00,32.0,2.6,30.06,WNW,292,22.8,22.8,28,-99.99,,---,-99.99,0.00,VWS V14.01,2013-03-05 19:23:00,
2013-03-05 13:29:00,32.0,2.6,30.06,WNW,292,23.3,23.3,28,-99.99,,---,-99.99,0.00,VWS V14.01,2013-03-05 19:29:00,
2013-03-05 13:35:00,32.2,2.8,30.06,NW,315,25.5,25.7,28,-99.99,,---,-99.99,0.00,VWS V14.01,2013-03-05 19:35:00,
2013-03-05 13:41:00,32.0,2.6,30.06,NNW,338,19.7,19.7,28,-99.99,,---,-99.99,0.00,VWS V14.01,2013-03-05 19:41:00,
2013-03-05 13:47:00,32.0,4.1,30.03,NW,315,18.6,18.6,30,-99.99,,---,-99.99,0.00,VWS V14.01,2013-03-05 19:47:00,
2013-03-05 13:53:00,31.8,2.4,30.00,NW,315,21.5,25.5,28,-99.99,,---,-99.99,0.00,VWS V14.01,2013-03-05 19:53:00,
2013-03-05 13:58:00,32.0,4.1,30.00,NW,315,25.5,25.5,30,-99.99,,---,-99.99,0.00,VWS V14.01,2013-03-05 19:58:00,
2013-03-05 14:04:00,32.0,4.1,30.00,NW,315,25.5,25.5,30,-99.99,,---,-99.99,0.00,VWS V14.01,2013-03-05 20:04:00,
2013-03-05 14:09:00,32.0,4.1,30.00,NW,315,25.5,25.5,30,-99.99,,---,-99.99,0.00,VWS V14.01,2013-03-05 20:09:00,
2013-03-05 14:14:00,32.0,2.6,30.03,NNW,338,13.2,19.7,28,-99.99,,---,-99.99,0.00,VWS V14.01,2013-03-05 20:14:00,
2013-03-05 14:19:00,32.2,4.2,30.03,NW,315,16.6,23.0,30,-99.99,,---,-99.99,0.00,VWS V14.01,2013-03-05 20:19:00,
2013-03-05 14:25:00,32.2,4.2,30.03,NNW,338,19.9,25.1,30,-99.99,,---,-99.99,0.00,VWS V14.01,2013-03-05 20:25:00,
2013-03-05 14:30:00,32.0,2.6,30.03,NNW,338,19.0,29.5,28,-99.99,,---,-99.99,0.00,VWS V14.01,2013-03-05 20:30:00,
2013-03-05 14:36:00,31.8,3.9,30.03,NW,315,24.6,24.6,30,-99.99,,---,-99.99,0.00,VWS V14.01,2013-03-05 20:36:00,
2013-03-05 14:42:00,31.8,3.9,30.03,NW,315,25.3,25.3,30,-99.99,,---,-99.99,0.00,VWS V14.01,2013-03-05 20:42:00,
2013-03-05 14:47:00,31.6,3.8,30.03,NNW,338,26.2,26.2,30,-99.99,,---,-99.99,0.00,VWS V14.01,2013-03-05 20:47:00,
2013-03-05 14:53:00,31.8,3.9,30.06,NNW,338,19.9,19.9,30,-99.99,,---,-99.99,0.00,VWS V14.01,2013-03-05 20:53:00,
2013-03-05 14:58:00,31.8,3.9,30.06,NW,315,22.4,22.4,30,-99.99,,---,-99.99,0.00,VWS V14.01,2013-03-05 20:58:00,
2013-03-05 15:03:00,31.3,4.2,30.06,NNW,338,21.9,22.8,31,-99.99,,---,-99.99,0.00,VWS V14.01,2013-03-05 21:03:00,
2013-03-05 15:10:00,31.3,4.2,30.06,WNW,292,19.5,19.5,31,-99.99,,---,-99.99,0.00,VWS V14.01,2013-03-05 21:10:00,
2013-03-05 15:16:00,31.6,4.5,30.06,NW,315,21.9,21.9,31,-99.99,,---,-99.99,0.00,VWS V14.01,2013-03-05 21:16:00,
2013-03-05 15:22:00,31.5,3.6,30.06,NW,315,28.6,28.6,30,-99.99,,---,-99.99,0.00,VWS V14.01,2013-03-05 21:22:00,
2013-03-05 15:29:00,0.0,0.0,30.09,North,0,0.0,0.0,0,-99.99,,---,-99.99,0.00,VWS V14.01,2013-03-05 21:29:00,
2013-03-05 15:35:00,0.0,0.0,30.09,NNW,338,23.5,23.5,0,-99.99,,---,-99.99,0.00,VWS V14.01,2013-03-05 21:35:00,
2013-03-05 15:41:00,31.5,3.6,30.09,NNW,338,21.0,23.7,30,-99.99,,---,-99.99,0.00,VWS V14.01,2013-03-05 21:41:00,
2013-03-05 15:46:00,31.6,3.8,30.09,NNW,338,12.8,14.8,30,-99.99,,---,-99.99,0.00,VWS V14.01,2013-03-05 21:46:00,
2013-03-05 15:51:00,31.6,3.8,30.09,NNW,338,14.3,14.3,30,-99.99,,---,-99.99,0.00,VWS V14.01,2013-03-05 21:51:00,
2013-03-05 15:57:00,31.6,3.8,30.09,NW,315,14.8,14.8,30,-99.99,,---,-99.99,0.00,VWS V14.01,2013-03-05 21:57:00,
2013-03-05 16:59:00,0.0,0.0,30.09,NNW,338,14.5,14.5,0,-99.99,,---,-99.99,0.00,VWS V14.01,2013-03-05 22:59:00,
2013-03-05 17:05:00,30.4,3.4,30.09,NW,315,12.5,22.4,31,-99.99,,---,-99.99,0.00,VWS V14.01,2013-03-05 23:05:00,
2013-03-05 17:10:00,30.4,3.4,30.09,WNW,292,23.7,23.7,31,-99.99,,---,-99.99,0.00,VWS V14.01,2013-03-05 23:10:00,
2013-03-05 17:15:00,30.4,2.7,30.09,NW,315,21.9,21.9,30,-99.99,,---,-99.99,0.00,VWS V14.01,2013-03-05 23:15:00,
2013-03-05 17:21:00,30.4,3.4,30.09,NW,315,10.1,17.9,31,-99.99,,---,-99.99,0.00,VWS V14.01,2013-03-05 23:21:00,
2013-03-05 17:26:00,30.4,3.4,30.09,NNW,338,15.7,15.7,31,-99.99,,---,-99.99,0.00,VWS V14.01,2013-03-05 23:26:00,
2013-03-05 17:32:00,30.2,3.2,30.09,NNW,338,15.2,17.2,31,-99.99,,---,-99.99,0.00,VWS V14.01,2013-03-05 23:32:00,
2013-03-05 17:38:00,30.2,3.2,30.12,NW,315,14.5,14.8,31,-99.99,,---,-99.99,0.00,VWS V14.01,2013-03-05 23:38:00,
2013-03-05 17:44:00,30.0,3.1,30.12,NNW,338,12.8,17.0,31,-99.99,,---,-99.99,0.00,VWS V14.01,2013-03-05 23:44:00,
2013-03-05 17:50:00,30.0,3.1,30.12,North,0,11.0,13.2,31,-99.99,,---,-99.99,0.00,VWS V14.01,2013-03-05 23:50:00,
2013-03-05 17:56:00,30.0,3.1,30.12,NNW,338,13.0,13.0,31,-99.99,,---,-99.99,0.00,VWS V14.01,2013-03-05 23:56:00,
2013-03-05 18:02:00,30.0,3.1,30.12,NNW,338,8.5,10.1,31,-99.99,,---,-99.99,0.00,VWS V14.01,2013-03-06 00:02:00,
2013-03-05 18:07:00,29.8,2.9,30.12,NNW,338,8.7,8.7,31,-99.99,,---,-99.99,0.00,VWS V14.01,2013-03-06 00:07:00,
2013-03-05 18:12:00,29.8,2.9,30.12,NNW,338,10.1,10.1,31,-99.99,,---,-99.99,0.00,VWS V14.01,2013-03-06 00:12:00,
2013-03-05 18:18:00,29.7,2.7,30.12,NW,315,21.9,21.9,31,-99.99,,---,-99.99,0.00,VWS V14.01,2013-03-06 00:18:00,
2013-03-05 18:23:00,29.5,1.9,30.12,NNW,338,17.5,17.5,30,-99.99,,---,-99.99,0.00,VWS V14.01,2013-03-06 00:23:00,
2013-03-05 18:29:00,29.5,1.9,30.12,NNW,338,17.7,18.6,30,-99.99,,---,-99.99,0.00,VWS V14.01,2013-03-06 00:29:00,
2013-03-05 18:35:00,29.5,1.9,30.12,NNW,338,15.4,19.7,30,-99.99,,---,-99.99,0.00,VWS V14.01,2013-03-06 00:35:00,
2013-03-05 18:41:00,29.3,1.7,30.15,NNE,22,17.7,17.7,30,-99.99,,---,-99.99,0.00,VWS V14.01,2013-03-06 00:41:00,
2013-03-05 18:47:00,29.3,1.7,30.15,North,0,10.7,14.8,30,-99.99,,---,-99.99,0.00,VWS V14.01,2013-03-06 00:47:00,
2013-03-05 18:52:00,29.3,1.7,30.15,NNW,338,12.8,19.9,30,-99.99,,---,-99.99,0.00,VWS V14.01,2013-03-06 00:52:00,
2013-03-05 18:57:00,29.1,1.6,30.15,NNW,338,10.5,15.2,30,-99.99,,---,-99.99,0.00,VWS V14.01,2013-03-06 00:57:00,
2013-03-05 19:03:00,29.1,1.6,30.15,North,0,13.2,14.3,30,-99.99,,---,-99.99,0.00,VWS V14.01,2013-03-06 01:03:00,
2013-03-05 19:08:00,29.1,1.6,30.15,NW,315,13.0,19.7,30,-99.99,,---,-99.99,0.00,VWS V14.01,2013-03-06 01:08:00,
2013-03-05 19:14:00,28.9,1.4,30.15,NNW,338,17.2,17.2,30,-99.99,,---,-99.99,0.00,VWS V14.01,2013-03-06 01:14:00,
2013-03-05 19:20:00,28.9,1.4,30.15,NW,315,18.8,18.8,30,-99.99,,---,-99.99,0.00,VWS V14.01,2013-03-06 01:20:00,